Barnardsville, North Carolina
Current Conditions -  °F | °C
As of 8:10 PM on Sunday 23 Nov 2014 (Local Time) from KAVL Reporting Station
Light Rain Light Rain  
Wind Chill: 50°   Ceiling: 2000
Heat Index: 50°   Visibility: 10mi
Dew Point: 47°   Wind: 7mph
Humidity: 89%   Direction: 120°ESE
Pressure: 29.71"   Gusts: NA
Location:  35.78°N, 82.45°W
Report Text: KAVL 240110Z 12006KT 10SM -RA BKN020 BKN080 OVC100 10/08 A2971 RMK AO2 PRESFR P0001 T01000083
Loading
Personal Weather Stations






























Interactive Weather Map New forecast layout! Learn more

10-Day Weather Forecast

Advertisements
Track Severe Weather on mobile